www.bettendroffer.lu
Wetterdaten: lundi, 03.01.2011
Datum Zeit Temp. 1 ext. Temp. 3 Feuchte 1 Feuchte 3 Luftdruck Regen Wind Richtung Richtung Taupunkt Windchill
03.01.2011 00:26 -2,5 C -2,7 C 57 % 68 % 1018 hPa 0,0 l/m 0,0 km/h (0 Bft) N 360 -9,8 C -2,5 C
03.01.2011 00:56 -3,3 C -3,5 C 57 % 67 % 1018 hPa 0,0 l/m 0,0 km/h (0 Bft) N 360 -10,6 C -3,3 C
03.01.2011 01:26 -4,0 C -4,6 C 57 % 67 % 1018 hPa 0,0 l/m 0,0 km/h (0 Bft) N 360 -11,2 C -4,0 C
03.01.2011 01:56 -4,6 C -5,1 C 57 % 67 % 1018 hPa 0,0 l/m 0,0 km/h (0 Bft) N 360 -11,8 C -4,6 C
03.01.2011 02:26 -4,9 C -5,3 C 58 % 67 % 1018 hPa 0,0 l/m 0,0 km/h (0 Bft) N 360 -11,9 C -4,9 C
03.01.2011 02:56 -4,5 C -4,8 C 61 % 69 % 1018 hPa 0,0 l/m 0,0 km/h (0 Bft) N 360 -10,9 C -4,5 C
03.01.2011 03:26 -4,9 C -5,3 C 61 % 69 % 1019 hPa 0,0 l/m 0,0 km/h (0 Bft) N 360 -11,2 C -4,9 C
03.01.2011 03:56 -5,3 C -5,7 C 62 % 69 % 1018 hPa 0,0 l/m 0,0 km/h (0 Bft) N 360 -11,4 C -5,3 C
03.01.2011 04:26 -5,6 C -6,1 C 63 % 69 % 1018 hPa 0,0 l/m 0,0 km/h (0 Bft) N 360 -11,5 C -5,6 C
03.01.2011 04:56 -5,8 C -6,1 C 65 % 70 % 1018 hPa 0,0 l/m 0,0 km/h (0 Bft) N 360 -11,3 C -5,8 C
03.01.2011 05:26 -5,3 C -5,4 C 67 % 71 % 1018 hPa 0,0 l/m 0,0 km/h (0 Bft) N 360 -10,4 C -5,3 C
03.01.2011 05:56 -5,1 C -5,3 C 68 % 71 % 1018 hPa 0,0 l/m 0,0 km/h (0 Bft) N 360 -10,1 C -5,1 C
03.01.2011 06:26 -4,7 C -5,0 C 68 % 72 % 1018 hPa 0,0 l/m 0,0 km/h (0 Bft) N 360 -9,7 C -4,7 C
03.01.2011 06:56 -4,7 C -5,0 C 68 % 72 % 1018 hPa 0,0 l/m 0,0 km/h (0 Bft) N 360 -9,7 C -4,7 C
03.01.2011 07:26 -4,4 C -4,8 C 68 % 72 % 1018 hPa 0,0 l/m 0,0 km/h (0 Bft) N 360 -9,4 C -4,4 C
03.01.2011 07:56 -4,5 C -4,9 C 67 % 72 % 1018 hPa 0,0 l/m 0,0 km/h (0 Bft) N 360 -9,7 C -4,5 C
03.01.2011 08:26 -5,0 C -5,3 C 65 % 71 % 1018 hPa 0,0 l/m 0,0 km/h (0 Bft) N 360 -10,5 C -5,0 C
03.01.2011 08:56 -5,0 C -5,2 C 66 % 71 % 1018 hPa 0,0 l/m 0,0 km/h (0 Bft) N 360 -10,3 C -5,0 C
03.01.2011 09:26 -4,4 C -4,6 C 68 % 73 % 1018 hPa 0,0 l/m 0,0 km/h (0 Bft) N 360 -9,4 C -4,4 C
03.01.2011 09:56 -3,6 C -3,8 C 69 % 73 % 1018 hPa 0,0 l/m 0,0 km/h (0 Bft) N 360 -8,4 C -3,6 C
03.01.2011 10:26 -2,8 C -3,3 C 68 % 74 % 1018 hPa 0,0 l/m 0,0 km/h (0 Bft) N 360 -7,9 C -2,8 C
03.01.2011 10:56 -2,2 C -2,6 C 65 % 74 % 1018 hPa 0,0 l/m 0,0 km/h (0 Bft) N 360 -7,9 C -2,2 C
03.01.2011 11:26 -1,1 C -1,3 C 61 % 75 % 1018 hPa 0,0 l/m 0,0 km/h (0 Bft) N 360 -7,6 C -1,1 C
03.01.2011 11:56 -1,2 C -0,9 C 55 % 71 % 1018 hPa 0,0 l/m 0,0 km/h (0 Bft) N 360 -9,1 C -1,2 C
03.01.2011 12:26 -0,4 C -0,5 C 55 % 68 % 1018 hPa 0,0 l/m 0,0 km/h (0 Bft) N 360 -8,3 C -0,4 C
03.01.2011 12:56 0,3 C 0,1 C 50 % 66 % 1018 hPa 0,0 l/m 0,0 km/h (0 Bft) N 360 -8,9 C 0,3 C
03.01.2011 13:26 0,7 C 0,6 C 48 % 64 % 1017 hPa 0,4 l/m 0,0 km/h (0 Bft) N 360 -9,0 C 0,7 C
03.01.2011 13:56 1,1 C 1,1 C 46 % 61 % 1017 hPa 0,0 l/m 0,0 km/h (0 Bft) N 360 -9,2 C 1,1 C
03.01.2011 14:26 1,4 C 1,3 C 45 % 59 % 1017 hPa 0,0 l/m 0,0 km/h (0 Bft) N 360 -9,2 C 1,4 C
03.01.2011 14:56 1,1 C 1,3 C 43 % 58 % 1017 hPa 0,0 l/m 0,0 km/h (0 Bft) N 360 -10,1 C 1,1 C
03.01.2011 15:26 1,0 C 1,0 C 45 % 57 % 1017 hPa 0,0 l/m 0,0 km/h (0 Bft) N 360 -9,6 C 1,0 C
03.01.2011 15:56 0,8 C 0,6 C 46 % 59 % 1017 hPa 0,0 l/m 0,0 km/h (0 Bft) N 360 -9,5 C 0,8 C
03.01.2011 16:26 0,5 C 0,2 C 47 % 59 % 1017 hPa 0,0 l/m 0,0 km/h (0 Bft) N 360 -9,5 C 0,5 C
03.01.2011 16:56 0,0 C -0,3 C 48 % 60 % 1017 hPa 0,0 l/m 0,0 km/h (0 Bft) N 360 -9,7 C 0,0 C
03.01.2011 17:26 -0,2 C -0,5 C 49 % 60 % 1017 hPa 0,0 l/m 0,0 km/h (0 Bft) N 360 -9,6 C -0,2 C
03.01.2011 17:56 -0,4 C -0,7 C 50 % 61 % 1016 hPa 0,0 l/m 0,0 km/h (0 Bft) N 360 -9,5 C -0,4 C
03.01.2011 18:26 -0,5 C -0,8 C 52 % 62 % 1016 hPa 0,0 l/m 0,0 km/h (0 Bft) N 360 -9,1 C -0,5 C
03.01.2011 18:56 -0,7 C -1,1 C 52 % 62 % 1016 hPa 0,0 l/m 0,0 km/h (0 Bft) N 360 -9,3 C -0,7 C
03.01.2011 19:26 -1,1 C -1,4 C 52 % 62 % 1016 hPa 0,0 l/m 0,0 km/h (0 Bft) N 360 -9,7 C -1,1 C
03.01.2011 19:56 -1,3 C -1,7 C 55 % 63 % 1016 hPa 0,0 l/m 0,0 km/h (0 Bft) N 360 -9,2 C -1,3 C
03.01.2011 20:26 -1,0 C -1,4 C 57 % 64 % 1016 hPa 0,0 l/m 0,0 km/h (0 Bft) N 360 -8,4 C -1,0 C
03.01.2011 20:56 -1,0 C -1,4 C 57 % 65 % 1016 hPa 0,0 l/m 0,0 km/h (0 Bft) N 360 -8,4 C -1,0 C
03.01.2011 21:26 -0,9 C -1,3 C 57 % 66 % 1016 hPa 0,0 l/m 0,0 km/h (0 Bft) N 360 -8,3 C -0,9 C
03.01.2011 21:56 -1,2 C -1,6 C 57 % 66 % 1016 hPa 0,0 l/m 0,0 km/h (0 Bft) N 360 -8,6 C -1,2 C
03.01.2011 22:26 -1,0 C -1,4 C 58 % 67 % 1016 hPa 0,0 l/m 0,0 km/h (0 Bft) N 360 -8,2 C -1,0 C
03.01.2011 22:56 -0,9 C -1,3 C 59 % 68 % 1016 hPa 0,0 l/m 0,0 km/h (0 Bft) N 360 -7,9 C -0,9 C
03.01.2011 23:26 -0,7 C -1,0 C 60 % 68 % 1016 hPa 0,0 l/m 0,0 km/h (0 Bft) O 100 -7,5 C -0,7 C
03.01.2011 23:56 -0,7 C -1,0 C 60 % 69 % 1016 hPa 0,0 l/m 0,0 km/h (0 Bft) O 100 -7,5 C -0,7 C
_ Min-Zeit 04:56 04:26 14:56 15:26 17:56 - 00:26 - - 02:26 04:56
Minimum _ -5,8 C -6,1 C 43 % 57 % 1016 hPa - 0,0 km/h (0 Bft) - - -11,9 C -5,8 C
_ Max-Zeit 14:26 14:26 09:56 11:26 03:26 13:26 00:26 - - 23:26 14:26
Maximum _ 1,4 C 1,3 C 69 % 75 % 1019 hPa 0,4 l/m 0,0 km/h
N (0 Bft)
- - -7,5 C 1,4 C
Durchschnitt _ -2,2 C -2,5 C 58 % 67 % 1017 hPa #0,4 l/m 0,0 km/h (0 Bft) - - - -9,5 C -2,2 C
©2001-2010 Bettendroffer Claude